createdAt,value
2022-08-28T00:00:19.962Z,99209.63
2022-08-28T00:00:52.251Z,99208.63
2022-08-28T00:01:24.170Z,99214.22
2022-08-28T00:01:56.052Z,99212.22
2022-08-28T00:02:28.329Z,99212.56
2022-08-28T00:03:00.914Z,99214.13
2022-08-28T00:03:32.848Z,99208.75
2022-08-28T00:04:05.127Z,99209.06
2022-08-28T00:04:37.763Z,99213.47
2022-08-28T00:05:11.596Z,99209.37
2022-08-28T00:05:43.896Z,99212.31
2022-08-28T00:06:16.110Z,99211.41
2022-08-28T00:06:48.035Z,99212.47
2022-08-28T00:07:19.967Z,99219.56
2022-08-28T00:07:52.038Z,99207.63
2022-08-28T00:08:24.462Z,99213.12
2022-08-28T00:08:56.607Z,99215.00
2022-08-28T00:09:28.735Z,99214.66
2022-08-28T00:10:00.662Z,99215.75
2022-08-28T00:10:33.224Z,99216.63
2022-08-28T00:11:05.361Z,99214.75
2022-08-28T00:11:37.695Z,99215.13
2022-08-28T00:12:09.728Z,99223.13
2022-08-28T00:12:41.723Z,99222.75
2022-08-28T00:13:19.840Z,99245.28
2022-08-28T00:13:51.886Z,99260.38
2022-08-28T00:14:25.659Z,99275.50
2022-08-28T00:14:57.741Z,99284.59
2022-08-28T00:15:32.841Z,99283.06
2022-08-28T00:16:05.413Z,99278.94
2022-08-28T00:16:38.037Z,99281.25
2022-08-28T00:17:10.061Z,99288.94
2022-08-28T00:17:42.335Z,99278.03
2022-08-28T00:18:14.449Z,99271.81
2022-08-28T00:18:47.098Z,99284.16
2022-08-28T00:19:20.722Z,99288.41
2022-08-28T00:19:52.656Z,99280.69
2022-08-28T00:20:26.024Z,99279.59
2022-08-28T00:20:59.366Z,99270.41
2022-08-28T00:21:33.228Z,99264.72
2022-08-28T00:22:06.066Z,99267.63
2022-08-28T00:22:38.922Z,99274.06
2022-08-28T00:23:11.004Z,99261.22
2022-08-28T00:23:43.640Z,99260.47
2022-08-28T00:24:15.798Z,99258.44
2022-08-28T00:24:48.198Z,99261.75
2022-08-28T00:25:24.236Z,99264.09
2022-08-28T00:25:56.143Z,99270.25
2022-08-28T00:26:46.782Z,99266.50
2022-08-28T00:27:37.753Z,99269.44
2022-08-28T00:28:13.459Z,99275.91
2022-08-28T00:28:55.936Z,99271.22
2022-08-28T00:29:29.331Z,99283.78
2022-08-28T00:30:01.327Z,99272.31
2022-08-28T00:30:37.057Z,99277.16
2022-08-28T00:31:09.106Z,99278.44
2022-08-28T00:31:41.160Z,99278.78
2022-08-28T00:32:13.834Z,99276.63
2022-08-28T00:32:46.324Z,99272.22
2022-08-28T00:33:27.400Z,99274.25
2022-08-28T00:33:59.439Z,99278.66
2022-08-28T00:34:33.457Z,99273.34
2022-08-28T00:35:06.735Z,99272.91
2022-08-28T00:35:41.104Z,99271.50
2022-08-28T00:36:13.090Z,99272.75
2022-08-28T00:36:45.370Z,99276.81
2022-08-28T00:37:17.717Z,99280.47
2022-08-28T00:37:50.685Z,99274.78
2022-08-28T00:38:25.675Z,99263.34
2022-08-28T00:39:00.118Z,99272.75
2022-08-28T00:39:32.665Z,99272.75
2022-08-28T00:40:05.061Z,99266.28
2022-08-28T00:40:40.213Z,99274.31
2022-08-28T00:41:12.260Z,99266.59
2022-08-28T00:41:47.523Z,99276.97
2022-08-28T00:42:20.576Z,99278.03
2022-08-28T00:42:53.890Z,99284.44
2022-08-28T00:43:41.263Z,99280.38
2022-08-28T00:44:21.773Z,99276.63
2022-08-28T00:44:53.683Z,99279.97
2022-08-28T00:45:26.730Z,99280.41
2022-08-28T00:45:58.645Z,99282.94
2022-08-28T00:46:30.630Z,99279.97
2022-08-28T00:47:03.180Z,99282.16
2022-08-28T00:47:35.520Z,99283.56
2022-08-28T00:48:08.223Z,99281.19
2022-08-28T00:48:40.671Z,99280.41
2022-08-28T00:49:14.717Z,99286.53
2022-08-28T00:49:51.182Z,99278.69
2022-08-28T00:50:26.568Z,99273.81
2022-08-28T00:51:21.405Z,99279.16
2022-08-28T00:52:12.981Z,99276.16
2022-08-28T00:52:47.833Z,99273.03
2022-08-28T00:53:21.150Z,99274.31
2022-08-28T00:53:59.006Z,99279.00
2022-08-28T00:54:34.557Z,99277.59
2022-08-28T00:55:11.423Z,99283.41
2022-08-28T00:55:44.078Z,99281.97
2022-08-28T00:56:18.504Z,99280.06
2022-08-28T00:56:52.045Z,99285.41
2022-08-28T00:57:32.557Z,99291.72
2022-08-28T00:58:07.068Z,99290.47
2022-08-28T00:58:42.115Z,99284.00
2022-08-28T00:59:17.577Z,99290.31
2022-08-28T00:59:49.550Z,99289.81
2022-08-28T01:00:33.956Z,99293.44
2022-08-28T01:01:05.980Z,99289.69
2022-08-28T01:01:39.303Z,99287.50
2022-08-28T01:02:11.537Z,99286.38
2022-08-28T01:02:44.135Z,99299.91
2022-08-28T01:03:16.136Z,99294.72
2022-08-28T01:03:48.477Z,99295.97
2022-08-28T01:04:22.427Z,99295.97
2022-08-28T01:04:55.306Z,99290.78
2022-08-28T01:05:28.858Z,99300.84
2022-08-28T01:06:01.537Z,99297.53
2022-08-28T01:06:35.699Z,99298.16
2022-08-28T01:07:10.505Z,99303.50
2022-08-28T01:07:43.418Z,99296.09
2022-08-28T01:08:16.326Z,99298.94
2022-08-28T01:08:54.465Z,99300.34
2022-08-28T01:09:30.644Z,99297.69
2022-08-28T01:10:05.354Z,99303.16
2022-08-28T01:10:37.478Z,99292.75
2022-08-28T01:11:10.879Z,99294.78
2022-08-28T01:11:44.587Z,99295.94
2022-08-28T01:12:29.680Z,99300.97
2022-08-28T01:13:02.179Z,99300.00
2022-08-28T01:13:36.564Z,99305.31
2022-08-28T01:14:09.202Z,99309.38
2022-08-28T01:14:42.617Z,99296.50
2022-08-28T01:15:18.828Z,99301.81
2022-08-28T01:15:51.488Z,99304.72
2022-08-28T01:16:31.601Z,99301.41
2022-08-28T01:17:08.547Z,99305.97
2022-08-28T01:17:48.451Z,99301.81
2022-08-28T01:18:21.337Z,99293.47
2022-08-28T01:18:54.712Z,99304.78
2022-08-28T01:19:33.187Z,99303.06
2022-08-28T01:20:09.591Z,99299.63
2022-08-28T01:21:20.359Z,99299.47
2022-08-28T01:22:09.916Z,99298.59
2022-08-28T01:22:59.080Z,99296.19
2022-08-28T01:24:02.226Z,99300.69
2022-08-28T01:24:38.293Z,99296.91
2022-08-28T01:25:16.784Z,99297.38
2022-08-28T01:25:48.706Z,99299.28
2022-08-28T01:26:21.645Z,99298.94
2022-08-28T01:26:53.540Z,99297.66
2022-08-28T01:27:25.456Z,99306.16
2022-08-28T01:27:59.015Z,99296.31
2022-08-28T01:28:31.361Z,99300.34
2022-08-28T01:29:03.521Z,99296.59
2022-08-28T01:29:36.446Z,99297.25
2022-08-28T01:30:15.008Z,99291.91
2022-08-28T01:30:49.476Z,99287.34
2022-08-28T01:31:21.805Z,99284.19
2022-08-28T01:31:53.754Z,99284.47
2022-08-28T01:32:39.496Z,99286.69
2022-08-28T01:33:12.307Z,99284.34
2022-08-28T01:33:46.129Z,99285.75
2022-08-28T01:34:18.084Z,99286.50
2022-08-28T01:34:50.284Z,99297.38
2022-08-28T01:35:26.279Z,99294.44
2022-08-28T01:35:59.347Z,99286.91
2022-08-28T01:36:32.285Z,99293.97
2022-08-28T01:37:04.352Z,99294.91
2022-08-28T01:37:37.215Z,99295.34
2022-08-28T01:38:09.262Z,99294.09
2022-08-28T01:38:43.753Z,99298.63
2022-08-28T01:39:19.870Z,99294.09
2022-08-28T01:39:52.216Z,99287.34
2022-08-28T01:40:29.049Z,99288.00
2022-08-28T01:41:00.999Z,99291.91
2022-08-28T01:41:33.465Z,99294.59
2022-08-28T01:42:06.894Z,99291.28
2022-08-28T01:42:40.490Z,99292.06
2022-08-28T01:43:19.003Z,99300.19
2022-08-28T01:43:50.909Z,99296.69
2022-08-28T01:44:26.776Z,99293.59
2022-08-28T01:44:59.317Z,99296.97
2022-08-28T01:45:31.453Z,99295.41
2022-08-28T01:46:05.926Z,99292.13
2022-08-28T01:46:38.000Z,99295.75
2022-08-28T01:47:11.399Z,99297.19
2022-08-28T01:47:45.244Z,99293.16
2022-08-28T01:48:17.191Z,99293.31
2022-08-28T01:48:49.324Z,99294.25
2022-08-28T01:49:21.682Z,99292.47
2022-08-28T01:49:53.595Z,99291.97
2022-08-28T01:50:25.931Z,99295.91
2022-08-28T01:50:57.954Z,99295.78
2022-08-28T01:51:29.944Z,99290.78
2022-08-28T01:52:07.539Z,99300.69
2022-08-28T01:52:41.740Z,99292.53
2022-08-28T01:53:19.400Z,99298.16
2022-08-28T01:53:56.710Z,99303.84
2022-08-28T01:54:28.920Z,99298.03
2022-08-28T01:55:00.868Z,99306.03
2022-08-28T01:55:37.355Z,99304.19
2022-08-28T01:56:13.541Z,99298.84
2022-08-28T01:56:45.883Z,99299.44
2022-08-28T01:57:17.879Z,99299.78
2022-08-28T01:57:53.899Z,99300.41
2022-08-28T01:58:28.023Z,99297.91
2022-08-28T01:59:03.521Z,99295.69
2022-08-28T01:59:35.498Z,99298.00
2022-08-28T02:00:08.411Z,99299.41
2022-08-28T02:00:44.437Z,99301.09
2022-08-28T02:01:20.356Z,99297.66
2022-08-28T02:01:52.857Z,99295.91
2022-08-28T02:02:24.833Z,99300.25
2022-08-28T02:03:00.902Z,99298.97
2022-08-28T02:03:33.511Z,99297.94
2022-08-28T02:04:06.304Z,99299.06
2022-08-28T02:04:38.419Z,99294.50
2022-08-28T02:05:11.136Z,99293.09
2022-08-28T02:05:44.053Z,99294.38
2022-08-28T02:06:17.917Z,99298.16
2022-08-28T02:06:50.847Z,99301.88
2022-08-28T02:07:22.794Z,99300.19
2022-08-28T02:07:55.966Z,99309.03
2022-08-28T02:08:27.929Z,99308.19
2022-08-28T02:09:00.477Z,99310.84
2022-08-28T02:09:32.398Z,99301.69
2022-08-28T02:10:06.612Z,99301.88
2022-08-28T02:10:39.965Z,99301.56
2022-08-28T02:11:12.791Z,99295.25
2022-08-28T02:11:46.608Z,99297.44
2022-08-28T02:12:18.949Z,99299.47
2022-08-28T02:12:55.435Z,99296.50
2022-08-28T02:13:31.083Z,99294.13
2022-08-28T02:14:03.069Z,99291.63
2022-08-28T02:14:35.510Z,99297.41
2022-08-28T02:15:08.085Z,99287.78
2022-08-28T02:15:41.870Z,99293.75
2022-08-28T02:16:14.047Z,99296.28
2022-08-28T02:16:47.221Z,99290.34
2022-08-28T02:17:19.177Z,99290.69
2022-08-28T02:17:52.132Z,99286.28
2022-08-28T02:18:24.673Z,99287.88
2022-08-28T02:18:56.716Z,99294.78
2022-08-28T02:19:29.824Z,99294.97
2022-08-28T02:20:01.975Z,99299.34
2022-08-28T02:20:34.003Z,99291.97
2022-08-28T02:21:07.289Z,99301.56
2022-08-28T02:21:39.436Z,99307.09
2022-08-28T02:22:13.453Z,99302.56
2022-08-28T02:22:45.819Z,99300.37
2022-08-28T02:23:17.999Z,99300.72
2022-08-28T02:23:50.216Z,99298.56
2022-08-28T02:24:22.289Z,99302.78
2022-08-28T02:24:54.229Z,99305.44
2022-08-28T02:25:27.199Z,99295.66
2022-08-28T02:25:59.277Z,99296.41
2022-08-28T02:26:31.928Z,99295.72
2022-08-28T02:27:04.111Z,99296.97
2022-08-28T02:27:36.666Z,99295.84
2022-08-28T02:28:09.254Z,99293.06
2022-08-28T02:28:42.364Z,99299.91
2022-08-28T02:29:14.407Z,99290.22
2022-08-28T02:29:46.971Z,99287.56
2022-08-28T02:30:18.937Z,99282.28
2022-08-28T02:30:51.094Z,99286.47
2022-08-28T02:31:23.096Z,99284.28
2022-08-28T02:31:55.786Z,99275.81
2022-08-28T02:32:28.067Z,99281.34
2022-08-28T02:33:00.359Z,99269.44
2022-08-28T02:33:32.239Z,99269.63
2022-08-28T02:34:04.546Z,99273.06
2022-08-28T02:34:37.389Z,99273.28
2022-08-28T02:35:12.209Z,99268.44
2022-08-28T02:35:44.209Z,99267.56
2022-08-28T02:36:16.446Z,99262.34
2022-08-28T02:36:49.167Z,99260.28
2022-08-28T02:37:22.450Z,99258.12
2022-08-28T02:37:55.410Z,99249.38
2022-08-28T02:38:27.736Z,99251.59
2022-08-28T02:39:03.280Z,99245.06
2022-08-28T02:39:35.649Z,99241.09
2022-08-28T02:40:08.612Z,99241.72
2022-08-28T02:40:41.360Z,99243.50
2022-08-28T02:41:13.620Z,99237.16
2022-08-28T02:41:45.516Z,99233.53
2022-08-28T02:42:17.443Z,99239.00
2022-08-28T02:42:52.132Z,99234.28
2022-08-28T02:43:24.024Z,99232.47
2022-08-28T02:43:56.331Z,99234.53
2022-08-28T02:44:28.275Z,99234.03
2022-08-28T02:45:00.982Z,99238.87
2022-08-28T02:45:33.658Z,99240.72
2022-08-28T02:46:06.615Z,99244.53
2022-08-28T02:46:38.610Z,99254.50
2022-08-28T02:47:10.582Z,99251.94
2022-08-28T02:47:44.771Z,99252.91
2022-08-28T02:48:17.102Z,99248.22
2022-08-28T02:48:50.383Z,99264.19
2022-08-28T02:49:25.540Z,99262.66
2022-08-28T02:50:04.262Z,99260.31
2022-08-28T02:50:36.235Z,99265.16
2022-08-28T02:51:13.426Z,99272.06
2022-08-28T02:51:45.352Z,99275.63
2022-08-28T02:52:19.096Z,99278.94
2022-08-28T02:52:52.083Z,99272.53
2022-08-28T02:53:23.973Z,99281.34
2022-08-28T02:53:56.461Z,99280.28
2022-08-28T02:54:28.640Z,99272.06
2022-08-28T02:55:00.612Z,99282.59
2022-08-28T02:55:34.225Z,99278.44
2022-08-28T02:56:06.556Z,99285.37
2022-08-28T02:56:38.476Z,99278.94
2022-08-28T02:57:10.441Z,99280.47
2022-08-28T02:57:42.800Z,99280.28
2022-08-28T02:58:14.772Z,99279.69
2022-08-28T02:58:47.888Z,99278.44
2022-08-28T02:59:19.917Z,99275.44
2022-08-28T02:59:52.223Z,99272.91
2022-08-28T03:00:25.951Z,99281.31
2022-08-28T03:01:01.871Z,99279.13
2022-08-28T03:01:34.347Z,99286.47
2022-08-28T03:02:07.308Z,99278.34
2022-08-28T03:02:40.650Z,99282.09
2022-08-28T03:03:12.619Z,99277.13
2022-08-28T03:03:44.738Z,99275.44
2022-08-28T03:04:17.592Z,99275.88
2022-08-28T03:04:49.584Z,99277.00
2022-08-28T03:05:25.442Z,99275.91
2022-08-28T03:05:59.605Z,99270.84
2022-08-28T03:06:32.630Z,99266.31
2022-08-28T03:07:07.478Z,99259.16
2022-08-28T03:07:39.868Z,99256.97
2022-08-28T03:08:12.436Z,99265.34
2022-08-28T03:08:44.822Z,99270.03
2022-08-28T03:09:16.782Z,99264.44
2022-08-28T03:09:49.960Z,99263.53
2022-08-28T03:10:22.700Z,99264.31
2022-08-28T03:10:54.994Z,99272.78
2022-08-28T03:11:27.729Z,99269.16
2022-08-28T03:11:59.696Z,99264.56
2022-08-28T03:12:32.300Z,99266.91
2022-08-28T03:13:06.054Z,99270.37
2022-08-28T03:13:38.461Z,99268.16
2022-08-28T03:14:10.427Z,99272.53
2022-08-28T03:14:42.551Z,99269.25
2022-08-28T03:15:14.519Z,99274.97
2022-08-28T03:15:46.800Z,99268.97
2022-08-28T03:16:25.430Z,99276.59
2022-08-28T03:16:57.447Z,99267.69
2022-08-28T03:17:29.497Z,99278.00
2022-08-28T03:18:01.409Z,99270.94
2022-08-28T03:18:40.231Z,99274.56
2022-08-28T03:19:12.312Z,99265.97
2022-08-28T03:19:45.094Z,99267.09
2022-08-28T03:20:17.069Z,99270.91
2022-08-28T03:20:48.990Z,99271.56
2022-08-28T03:21:20.958Z,99271.06
2022-08-28T03:21:53.476Z,99274.75
2022-08-28T03:22:44.166Z,99275.91
2022-08-28T03:23:28.851Z,99270.25
2022-08-28T03:24:00.830Z,99279.63
2022-08-28T03:24:33.415Z,99284.06
2022-08-28T03:25:06.269Z,99284.56
2022-08-28T03:25:38.302Z,99288.50
2022-08-28T03:26:14.195Z,99289.31
2022-08-28T03:26:46.933Z,99292.97
2022-08-28T03:27:19.532Z,99297.31
2022-08-28T03:27:52.191Z,99303.62
2022-08-28T03:28:28.747Z,99306.41
2022-08-28T03:29:00.822Z,99314.28
2022-08-28T03:29:32.726Z,99315.66
2022-08-28T03:30:07.920Z,99315.75
2022-08-28T03:30:40.090Z,99321.97
2022-08-28T03:31:15.150Z,99325.22
2022-08-28T03:31:47.574Z,99326.28
2022-08-28T03:32:19.802Z,99324.19
2022-08-28T03:32:52.100Z,99321.09
2022-08-28T03:33:25.339Z,99330.84
2022-08-28T03:33:57.978Z,99316.78
2022-08-28T03:34:29.969Z,99324.47
2022-08-28T03:35:03.382Z,99321.16
2022-08-28T03:35:35.393Z,99321.22
2022-08-28T03:36:08.426Z,99314.56
2022-08-28T03:36:40.399Z,99306.78
2022-08-28T03:37:12.758Z,99316.44
2022-08-28T03:37:45.117Z,99314.78
2022-08-28T03:38:18.331Z,99307.97
2022-08-28T03:38:51.941Z,99304.34
2022-08-28T03:39:23.835Z,99295.75
2022-08-28T03:39:56.001Z,99295.16
2022-08-28T03:40:28.016Z,99305.78
2022-08-28T03:40:59.987Z,99302.63
2022-08-28T03:41:34.171Z,99298.91
2022-08-28T03:42:06.220Z,99295.62
2022-08-28T03:42:39.084Z,99298.53
2022-08-28T03:43:14.394Z,99308.19
2022-08-28T03:43:46.610Z,99303.97
2022-08-28T03:44:18.567Z,99301.69
2022-08-28T03:44:50.485Z,99308.69
2022-08-28T03:45:22.631Z,99308.19
2022-08-28T03:46:00.157Z,99314.13
2022-08-28T03:46:34.203Z,99303.75
2022-08-28T03:47:06.227Z,99310.69
2022-08-28T03:47:39.888Z,99313.34
2022-08-28T03:48:12.249Z,99315.72
2022-08-28T03:48:45.906Z,99313.50
2022-08-28T03:49:17.845Z,99321.22
2022-08-28T03:49:56.473Z,99306.03
2022-08-28T03:50:28.959Z,99318.25
2022-08-28T03:51:01.801Z,99317.66
2022-08-28T03:51:34.873Z,99315.84
2022-08-28T03:52:07.129Z,99321.47
2022-08-28T03:52:42.566Z,99314.56
2022-08-28T03:53:14.998Z,99311.22
2022-08-28T03:53:47.456Z,99311.22
2022-08-28T03:54:19.351Z,99311.50
2022-08-28T03:54:52.017Z,99312.00
2022-08-28T03:55:24.287Z,99306.63
2022-08-28T03:55:56.975Z,99303.84
2022-08-28T03:56:30.483Z,99310.28
2022-08-28T03:57:02.432Z,99309.78
2022-08-28T03:57:35.347Z,99305.28
2022-08-28T03:58:08.198Z,99302.97
2022-08-28T03:58:42.306Z,99301.31
2022-08-28T03:59:14.398Z,99304.69
2022-08-28T03:59:51.836Z,99303.97
2022-08-28T04:00:24.215Z,99297.38
2022-08-28T04:00:56.714Z,99300.53
2022-08-28T04:01:29.305Z,99297.66
2022-08-28T04:02:01.259Z,99302.41
2022-08-28T04:02:33.262Z,99291.25
2022-08-28T04:03:05.446Z,99296.47
2022-08-28T04:03:37.505Z,99293.81
2022-08-28T04:04:09.777Z,99299.84
2022-08-28T04:04:41.679Z,99299.56
2022-08-28T04:05:14.099Z,99303.69
2022-08-28T04:05:47.250Z,99301.81
2022-08-28T04:06:20.164Z,99304.47
2022-08-28T04:06:52.055Z,99299.56
2022-08-28T04:07:23.952Z,99302.78
2022-08-28T04:07:55.952Z,99315.13
2022-08-28T04:08:29.394Z,99306.47
2022-08-28T04:09:02.268Z,99307.94
2022-08-28T04:09:34.610Z,99300.44
2022-08-28T04:10:07.471Z,99299.56
2022-08-28T04:10:39.474Z,99306.19
2022-08-28T04:11:11.401Z,99307.75
2022-08-28T04:11:43.958Z,99310.47
2022-08-28T04:12:16.071Z,99308.22
2022-08-28T04:12:48.064Z,99309.59
2022-08-28T04:13:21.339Z,99316.69
2022-08-28T04:13:53.208Z,99320.44
2022-08-28T04:14:25.114Z,99308.91
2022-08-28T04:14:57.542Z,99312.34
2022-08-28T04:15:29.701Z,99310.22
2022-08-28T04:16:11.359Z,99317.09
2022-08-28T04:16:43.783Z,99317.38
2022-08-28T04:17:16.659Z,99311.19
2022-08-28T04:17:48.608Z,99308.41
2022-08-28T04:18:20.949Z,99320.84
2022-08-28T04:18:52.841Z,99326.72
2022-08-28T04:19:24.736Z,99317.09
2022-08-28T04:19:56.714Z,99319.28
2022-08-28T04:20:29.176Z,99322.59
2022-08-28T04:21:11.674Z,99323.69
2022-08-28T04:21:44.221Z,99325.16
2022-08-28T04:22:16.113Z,99323.09
2022-08-28T04:22:55.133Z,99322.22
2022-08-28T04:23:27.339Z,99323.69
2022-08-28T04:23:59.243Z,99321.63
2022-08-28T04:24:31.231Z,99325.56
2022-08-28T04:25:04.290Z,99323.37
2022-08-28T04:25:36.270Z,99325.94
2022-08-28T04:26:09.170Z,99327.25
2022-08-28T04:26:41.074Z,99327.53
2022-08-28T04:27:15.031Z,99330.19
2022-08-28T04:27:46.937Z,99325.16
2022-08-28T04:28:18.857Z,99329.38
2022-08-28T04:28:50.991Z,99335.81
2022-08-28T04:29:25.612Z,99330.47
2022-08-28T04:29:57.743Z,99330.78
2022-08-28T04:30:29.630Z,99332.66
2022-08-28T04:31:02.237Z,99335.84
2022-08-28T04:31:35.516Z,99329.13
2022-08-28T04:32:07.579Z,99334.72
2022-08-28T04:32:40.718Z,99326.84
2022-08-28T04:33:14.200Z,99331.28
2022-08-28T04:33:46.392Z,99324.16
2022-08-28T04:34:18.321Z,99323.50
2022-08-28T04:34:50.637Z,99326.44
2022-08-28T04:35:22.638Z,99323.78
2022-08-28T04:35:54.882Z,99320.94
2022-08-28T04:36:26.752Z,99320.22
2022-08-28T04:36:58.873Z,99322.22
2022-08-28T04:37:31.080Z,99323.91
2022-08-28T04:38:05.564Z,99327.12
2022-08-28T04:38:43.493Z,99323.81
2022-08-28T04:39:15.925Z,99315.13
2022-08-28T04:39:47.820Z,99329.13
2022-08-28T04:40:19.821Z,99322.00
2022-08-28T04:40:51.827Z,99318.47
2022-08-28T04:41:24.016Z,99326.75
2022-08-28T04:41:56.091Z,99322.13
2022-08-28T04:42:28.080Z,99321.44
2022-08-28T04:43:00.003Z,99315.31
2022-08-28T04:43:32.349Z,99318.69
2022-08-28T04:44:05.326Z,99321.34
2022-08-28T04:44:37.448Z,99324.28
2022-08-28T04:45:09.746Z,99320.06
2022-08-28T04:45:43.421Z,99323.41
2022-08-28T04:46:15.616Z,99321.16
2022-08-28T04:46:48.400Z,99328.31
2022-08-28T04:47:23.004Z,99326.75
2022-08-28T04:47:54.939Z,99323.22
2022-08-28T04:48:27.497Z,99325.28
2022-08-28T04:49:00.157Z,99326.38
2022-08-28T04:49:32.221Z,99328.03
2022-08-28T04:50:05.303Z,99333.06
2022-08-28T04:50:44.107Z,99328.44
2022-08-28T04:51:16.519Z,99322.44
2022-08-28T04:51:48.525Z,99325.28
2022-08-28T04:52:20.470Z,99323.31
2022-08-28T04:52:52.589Z,99316.88
2022-08-28T04:53:24.821Z,99326.94
2022-08-28T04:53:57.921Z,99325.97
2022-08-28T04:54:32.139Z,99323.59
2022-08-28T04:55:04.931Z,99320.16
2022-08-28T04:55:53.671Z,99325.59
2022-08-28T04:56:27.387Z,99321.25
2022-08-28T04:56:59.324Z,99314.34
2022-08-28T04:57:36.121Z,99324.00
2022-08-28T04:58:08.945Z,99313.28
2022-08-28T04:58:43.024Z,99313.50
2022-08-28T04:59:15.018Z,99314.37
2022-08-28T04:59:47.799Z,99311.91
2022-08-28T05:00:19.921Z,99314.87
2022-08-28T05:00:53.986Z,99307.97
2022-08-28T05:01:26.178Z,99314.28
2022-08-28T05:01:58.219Z,99312.47
2022-08-28T05:02:30.279Z,99307.44
2022-08-28T05:03:02.247Z,99313.44
2022-08-28T05:03:34.489Z,99315.81
2022-08-28T05:04:06.577Z,99306.78
2022-08-28T05:04:38.510Z,99305.09
2022-08-28T05:05:11.825Z,99309.03
2022-08-28T05:05:49.616Z,99303.03
2022-08-28T05:06:23.035Z,99310.09
2022-08-28T05:06:55.022Z,99306.53
2022-08-28T05:07:27.110Z,99310.97
2022-08-28T05:07:59.055Z,99313.63
2022-08-28T05:08:31.903Z,99307.28
2022-08-28T05:09:04.445Z,99319.50
2022-08-28T05:09:36.474Z,99308.69
2022-08-28T05:10:08.733Z,99316.34
2022-08-28T05:10:41.663Z,99311.03
2022-08-28T05:11:22.116Z,99321.75
2022-08-28T05:12:06.606Z,99317.88
2022-08-28T05:12:38.533Z,99310.00
2022-08-28T05:13:12.299Z,99319.25
2022-08-28T05:13:45.166Z,99311.62
2022-08-28T05:14:17.264Z,99314.56
2022-08-28T05:14:49.709Z,99317.88
2022-08-28T05:15:21.599Z,99317.09
2022-08-28T05:15:55.351Z,99322.19
2022-08-28T05:16:27.446Z,99313.66
2022-08-28T05:16:59.913Z,99324.06
2022-08-28T05:17:32.123Z,99316.38
2022-08-28T05:18:04.235Z,99315.28
2022-08-28T05:18:36.380Z,99321.09
2022-08-28T05:19:08.391Z,99322.06
2022-08-28T05:19:40.771Z,99324.78
2022-08-28T05:20:12.723Z,99324.50
2022-08-28T05:20:46.829Z,99328.00
2022-08-28T05:21:22.279Z,99323.97
2022-08-28T05:21:54.497Z,99320.09
2022-08-28T05:22:28.898Z,99326.25
2022-08-28T05:23:00.778Z,99327.22
2022-08-28T05:23:32.803Z,99324.06
2022-08-28T05:24:05.706Z,99324.84
2022-08-28T05:24:38.178Z,99325.66
2022-08-28T05:25:10.519Z,99333.03
2022-08-28T05:25:45.324Z,99322.84
2022-08-28T05:26:19.878Z,99330.22
2022-08-28T05:26:52.252Z,99326.62
2022-08-28T05:27:24.559Z,99337.97
2022-08-28T05:27:56.473Z,99332.03
2022-08-28T05:28:28.411Z,99337.69
2022-08-28T05:29:00.717Z,99333.19
2022-08-28T05:29:32.947Z,99336.78
2022-08-28T05:30:05.887Z,99335.56
2022-08-28T05:30:39.432Z,99344.50
2022-08-28T05:31:16.378Z,99335.88
2022-08-28T05:31:48.681Z,99338.53
2022-08-28T05:32:21.568Z,99336.22
2022-08-28T05:32:54.002Z,99340.47
2022-08-28T05:33:25.909Z,99339.53
2022-08-28T05:33:59.460Z,99341.59
2022-08-28T05:34:31.784Z,99345.66
2022-08-28T05:35:04.030Z,99349.75
2022-08-28T05:35:38.682Z,99343.16
2022-08-28T05:36:11.450Z,99349.66
2022-08-28T05:36:43.339Z,99352.00
2022-08-28T05:37:19.448Z,99348.09
2022-08-28T05:37:55.118Z,99347.75
2022-08-28T05:38:27.055Z,99352.78
2022-08-28T05:38:59.020Z,99346.34
2022-08-28T05:39:30.922Z,99350.28
2022-08-28T05:40:03.324Z,99350.12
2022-08-28T05:40:44.638Z,99354.34
2022-08-28T05:41:21.141Z,99358.31
2022-08-28T05:41:53.098Z,99358.78
2022-08-28T05:42:28.865Z,99357.97
2022-08-28T05:43:03.291Z,99355.78
2022-08-28T05:43:36.126Z,99352.66
2022-08-28T05:44:10.435Z,99359.53
2022-08-28T05:44:42.315Z,99355.94
2022-08-28T05:45:14.211Z,99363.16
2022-08-28T05:45:46.309Z,99358.16
2022-08-28T05:46:18.403Z,99357.97
2022-08-28T05:46:51.376Z,99355.63
2022-08-28T05:47:23.403Z,99359.56
2022-08-28T05:47:55.323Z,99363.00
2022-08-28T05:48:34.859Z,99363.31
2022-08-28T05:49:10.653Z,99359.53
2022-08-28T05:49:42.592Z,99355.75
2022-08-28T05:50:15.001Z,99355.47
2022-08-28T05:50:48.135Z,99354.34
2022-08-28T05:51:22.746Z,99361.09
2022-08-28T05:51:54.745Z,99360.97
2022-08-28T05:52:28.799Z,99363.47
2022-08-28T05:53:01.453Z,99368.00
2022-08-28T05:53:35.632Z,99365.97
2022-08-28T05:54:08.745Z,99366.44
2022-08-28T05:54:40.648Z,99364.66
2022-08-28T05:55:13.248Z,99367.31
2022-08-28T05:55:45.597Z,99368.28
2022-08-28T05:56:30.928Z,99371.56
2022-08-28T05:57:03.802Z,99363.69
2022-08-28T05:57:36.236Z,99362.41
2022-08-28T05:58:26.977Z,99369.47
2022-08-28T05:59:03.034Z,99361.16
2022-08-28T05:59:34.995Z,99357.69
2022-08-28T06:00:07.790Z,99364.78
2022-08-28T06:00:40.418Z,99360.72
2022-08-28T06:01:21.588Z,99358.06
2022-08-28T06:01:53.559Z,99355.56
2022-08-28T06:02:26.758Z,99357.75
2022-08-28T06:02:59.162Z,99354.44
2022-08-28T06:03:31.254Z,99350.31
2022-08-28T06:04:08.473Z,99356.28
2022-08-28T06:04:40.649Z,99358.31
2022-08-28T06:05:13.048Z,99359.25
2022-08-28T06:05:45.488Z,99362.81
2022-08-28T06:06:17.535Z,99354.19
2022-08-28T06:06:49.984Z,99358.28
2022-08-28T06:07:21.902Z,99360.75
2022-08-28T06:07:53.876Z,99361.88
2022-08-28T06:08:26.636Z,99365.94
2022-08-28T06:09:04.612Z,99360.84
2022-08-28T06:09:38.346Z,99362.88
2022-08-28T06:10:10.624Z,99364.59
2022-08-28T06:10:44.809Z,99361.88
2022-08-28T06:11:21.124Z,99366.41
2022-08-28T06:11:59.046Z,99359.72
2022-08-28T06:12:31.262Z,99353.97
2022-08-28T06:13:04.288Z,99358.84
2022-08-28T06:13:37.590Z,99354.44
2022-08-28T06:14:12.043Z,99356.00
2022-08-28T06:14:47.238Z,99356.81
2022-08-28T06:15:19.219Z,99354.28
2022-08-28T06:15:51.297Z,99354.56
2022-08-28T06:16:23.567Z,99353.31
2022-08-28T06:16:56.789Z,99356.31
2022-08-28T06:17:28.805Z,99366.28
2022-08-28T06:18:00.733Z,99355.69
2022-08-28T06:18:32.669Z,99357.44
2022-08-28T06:19:06.855Z,99355.06
2022-08-28T06:19:41.495Z,99356.78
2022-08-28T06:20:13.680Z,99358.78
2022-08-28T06:20:47.713Z,99353.69
2022-08-28T06:21:20.759Z,99354.34
2022-08-28T06:21:58.902Z,99355.38
2022-08-28T06:22:31.879Z,99351.28
2022-08-28T06:23:03.854Z,99349.97
2022-08-28T06:23:35.954Z,99349.91
2022-08-28T06:24:12.225Z,99349.78
2022-08-28T06:24:44.159Z,99350.50
2022-08-28T06:25:16.112Z,99350.88
2022-08-28T06:25:50.046Z,99356.38
2022-08-28T06:26:23.086Z,99354.28
2022-08-28T06:26:58.485Z,99345.03
2022-08-28T06:27:33.085Z,99341.47
2022-08-28T06:28:07.005Z,99348.66
2022-08-28T06:28:39.390Z,99346.69
2022-08-28T06:29:13.978Z,99341.75
2022-08-28T06:29:45.888Z,99346.91
2022-08-28T06:30:17.904Z,99349.16
2022-08-28T06:31:17.974Z,99344.56
2022-08-28T06:31:44.424Z,99346.22
2022-08-28T06:32:16.775Z,99347.09
2022-08-28T06:32:48.751Z,99346.03
2022-08-28T06:33:22.194Z,99341.03
2022-08-28T06:33:56.073Z,99339.84
2022-08-28T06:34:28.724Z,99341.88
2022-08-28T06:35:00.623Z,99334.50
2022-08-28T06:35:34.394Z,99345.16